sensor_id;sensor_type;location;lat;lon;timestamp;temperature;humidity
19050;DHT22;9657;45.940;12.840;2022-12-24T00:00:15;11.40;75.90
19050;DHT22;9657;45.940;12.840;2022-12-24T00:02:42;11.40;76.00
19050;DHT22;9657;45.940;12.840;2022-12-24T00:05:10;11.40;75.90
19050;DHT22;9657;45.940;12.840;2022-12-24T00:07:37;11.40;75.80
19050;DHT22;9657;45.940;12.840;2022-12-24T00:10:05;11.40;75.90
19050;DHT22;9657;45.940;12.840;2022-12-24T00:12:33;11.40;76.00
19050;DHT22;9657;45.940;12.840;2022-12-24T00:15:00;11.40;75.90
19050;DHT22;9657;45.940;12.840;2022-12-24T00:17:27;11.40;75.90
19050;DHT22;9657;45.940;12.840;2022-12-24T00:19:54;11.40;75.80
19050;DHT22;9657;45.940;12.840;2022-12-24T00:22:23;11.40;75.80
19050;DHT22;9657;45.940;12.840;2022-12-24T00:24:50;11.40;75.80
19050;DHT22;9657;45.940;12.840;2022-12-24T00:27:17;11.40;75.80
19050;DHT22;9657;45.940;12.840;2022-12-24T00:29:44;11.40;75.80
19050;DHT22;9657;45.940;12.840;2022-12-24T00:32:11;11.40;75.80
19050;DHT22;9657;45.940;12.840;2022-12-24T00:34:38;11.40;75.80
19050;DHT22;9657;45.940;12.840;2022-12-24T00:37:07;11.40;75.80
19050;DHT22;9657;45.940;12.840;2022-12-24T00:39:35;11.40;75.80
19050;DHT22;9657;45.940;12.840;2022-12-24T00:42:02;11.40;75.80
19050;DHT22;9657;45.940;12.840;2022-12-24T00:44:29;11.40;75.80
19050;DHT22;9657;45.940;12.840;2022-12-24T00:46:56;11.40;75.80
19050;DHT22;9657;45.940;12.840;2022-12-24T00:49:23;11.40;75.80
19050;DHT22;9657;45.940;12.840;2022-12-24T00:51:50;11.40;75.80
19050;DHT22;9657;45.940;12.840;2022-12-24T00:54:17;11.40;75.80
19050;DHT22;9657;45.940;12.840;2022-12-24T00:56:46;11.40;75.80
19050;DHT22;9657;45.940;12.840;2022-12-24T00:59:13;11.40;75.80
19050;DHT22;9657;45.940;12.840;2022-12-24T01:01:40;11.40;75.80
19050;DHT22;9657;45.940;12.840;2022-12-24T01:04:07;11.40;75.80
19050;DHT22;9657;45.940;12.840;2022-12-24T01:06:51;11.40;75.80
19050;DHT22;9657;45.940;12.840;2022-12-24T01:09:18;11.40;75.80
19050;DHT22;9657;45.940;12.840;2022-12-24T01:11:47;11.40;75.80
19050;DHT22;9657;45.940;12.840;2022-12-24T01:14:13;11.40;75.80
19050;DHT22;9657;45.940;12.840;2022-12-24T01:16:41;11.40;75.80
19050;DHT22;9657;45.940;12.840;2022-12-24T01:19:08;11.40;75.80
19050;DHT22;9657;45.940;12.840;2022-12-24T01:21:35;11.40;75.80
19050;DHT22;9657;45.940;12.840;2022-12-24T01:24:02;11.40;75.80
19050;DHT22;9657;45.940;12.840;2022-12-24T01:26:29;11.40;75.80
19050;DHT22;9657;45.940;12.840;2022-12-24T01:28:58;11.40;75.80
19050;DHT22;9657;45.940;12.840;2022-12-24T01:31:25;11.40;75.80
19050;DHT22;9657;45.940;12.840;2022-12-24T01:33:52;11.40;75.80
19050;DHT22;9657;45.940;12.840;2022-12-24T01:36:19;11.40;75.80
19050;DHT22;9657;45.940;12.840;2022-12-24T01:38:46;11.40;75.80
19050;DHT22;9657;45.940;12.840;2022-12-24T01:41:14;11.40;75.80
19050;DHT22;9657;45.940;12.840;2022-12-24T01:44:23;11.40;75.70
19050;DHT22;9657;45.940;12.840;2022-12-24T01:46:55;11.40;75.80
19050;DHT22;9657;45.940;12.840;2022-12-24T01:49:25;11.40;75.80
19050;DHT22;9657;45.940;12.840;2022-12-24T01:51:55;11.40;75.80
19050;DHT22;9657;45.940;12.840;2022-12-24T01:54:28;11.40;75.70
19050;DHT22;9657;45.940;12.840;2022-12-24T01:57:00;11.40;75.80
19050;DHT22;9657;45.940;12.840;2022-12-24T01:59:30;11.40;75.80
19050;DHT22;9657;45.940;12.840;2022-12-24T02:04:36;11.40;75.80
19050;DHT22;9657;45.940;12.840;2022-12-24T02:07:06;11.40;75.80
19050;DHT22;9657;45.940;12.840;2022-12-24T02:09:33;11.40;75.80
19050;DHT22;9657;45.940;12.840;2022-12-24T02:12:02;11.40;75.80
19050;DHT22;9657;45.940;12.840;2022-12-24T02:14:31;11.40;75.80
19050;DHT22;9657;45.940;12.840;2022-12-24T02:17:06;11.40;75.80
19050;DHT22;9657;45.940;12.840;2022-12-24T02:19:56;11.40;75.80
19050;DHT22;9657;45.940;12.840;2022-12-24T02:22:36;11.40;75.90
19050;DHT22;9657;45.940;12.840;2022-12-24T02:25:29;11.40;75.80
19050;DHT22;9657;45.940;12.840;2022-12-24T02:28:06;11.40;75.80
19050;DHT22;9657;45.940;12.840;2022-12-24T02:30:41;11.40;75.80
19050;DHT22;9657;45.940;12.840;2022-12-24T02:33:17;11.40;75.80
19050;DHT22;9657;45.940;12.840;2022-12-24T02:35:49;11.40;75.80
19050;DHT22;9657;45.940;12.840;2022-12-24T02:38:22;11.40;75.80
19050;DHT22;9657;45.940;12.840;2022-12-24T02:40:55;11.40;75.80
19050;DHT22;9657;45.940;12.840;2022-12-24T02:43:26;11.40;75.80
19050;DHT22;9657;45.940;12.840;2022-12-24T02:45:58;11.40;75.80
19050;DHT22;9657;45.940;12.840;2022-12-24T02:48:27;11.40;75.80
19050;DHT22;9657;45.940;12.840;2022-12-24T02:51:01;11.40;75.70
19050;DHT22;9657;45.940;12.840;2022-12-24T02:53:29;11.40;75.80
19050;DHT22;9657;45.940;12.840;2022-12-24T02:56:17;11.40;75.80
19050;DHT22;9657;45.940;12.840;2022-12-24T02:59:07;11.40;75.80
19050;DHT22;9657;45.940;12.840;2022-12-24T03:01:45;11.40;75.80
19050;DHT22;9657;45.940;12.840;2022-12-24T03:04:22;11.40;75.80
19050;DHT22;9657;45.940;12.840;2022-12-24T03:07:09;11.40;75.80
19050;DHT22;9657;45.940;12.840;2022-12-24T03:09:49;11.40;75.80
19050;DHT22;9657;45.940;12.840;2022-12-24T03:12:22;11.40;75.80
19050;DHT22;9657;45.940;12.840;2022-12-24T03:14:50;11.40;75.80
19050;DHT22;9657;45.940;12.840;2022-12-24T03:17:19;11.40;75.70
19050;DHT22;9657;45.940;12.840;2022-12-24T03:19:47;11.40;75.80
19050;DHT22;9657;45.940;12.840;2022-12-24T03:22:15;11.40;75.80
19050;DHT22;9657;45.940;12.840;2022-12-24T03:24:43;11.40;75.80
19050;DHT22;9657;45.940;12.840;2022-12-24T03:27:11;11.40;75.80
19050;DHT22;9657;45.940;12.840;2022-12-24T03:29:40;11.40;75.80
19050;DHT22;9657;45.940;12.840;2022-12-24T03:32:07;11.40;75.70
19050;DHT22;9657;45.940;12.840;2022-12-24T03:34:36;11.40;75.80
19050;DHT22;9657;45.940;12.840;2022-12-24T03:37:03;11.40;75.70
19050;DHT22;9657;45.940;12.840;2022-12-24T03:39:30;11.40;75.70
19050;DHT22;9657;45.940;12.840;2022-12-24T03:41:57;11.40;75.70
19050;DHT22;9657;45.940;12.840;2022-12-24T03:44:24;11.40;75.70
19050;DHT22;9657;45.940;12.840;2022-12-24T03:46:51;11.40;75.80
19050;DHT22;9657;45.940;12.840;2022-12-24T03:49:18;11.40;75.70
19050;DHT22;9657;45.940;12.840;2022-12-24T03:51:46;11.40;75.70
19050;DHT22;9657;45.940;12.840;2022-12-24T03:54:13;11.40;75.70
19050;DHT22;9657;45.940;12.840;2022-12-24T03:56:40;11.40;75.70
19050;DHT22;9657;45.940;12.840;2022-12-24T03:59:07;11.40;75.70
19050;DHT22;9657;45.940;12.840;2022-12-24T04:01:34;11.40;75.70
19050;DHT22;9657;45.940;12.840;2022-12-24T04:04:01;11.40;75.70
19050;DHT22;9657;45.940;12.840;2022-12-24T04:06:28;11.40;75.70
19050;DHT22;9657;45.940;12.840;2022-12-24T04:08:57;11.40;75.70
19050;DHT22;9657;45.940;12.840;2022-12-24T04:11:26;11.40;75.70
19050;DHT22;9657;45.940;12.840;2022-12-24T04:13:53;11.40;75.70
19050;DHT22;9657;45.940;12.840;2022-12-24T04:16:20;11.40;75.70
19050;DHT22;9657;45.940;12.840;2022-12-24T04:18:47;11.40;75.70
19050;DHT22;9657;45.940;12.840;2022-12-24T04:21:14;11.40;75.70
19050;DHT22;9657;45.940;12.840;2022-12-24T04:23:42;11.40;75.70
19050;DHT22;9657;45.940;12.840;2022-12-24T04:26:11;11.40;75.70
19050;DHT22;9657;45.940;12.840;2022-12-24T04:28:40;11.40;75.70
19050;DHT22;9657;45.940;12.840;2022-12-24T04:31:09;11.40;75.70
19050;DHT22;9657;45.940;12.840;2022-12-24T04:33:37;11.40;75.70
19050;DHT22;9657;45.940;12.840;2022-12-24T04:36:05;11.40;75.70
19050;DHT22;9657;45.940;12.840;2022-12-24T04:38:33;11.40;75.70
19050;DHT22;9657;45.940;12.840;2022-12-24T04:41:01;11.40;75.70
19050;DHT22;9657;45.940;12.840;2022-12-24T04:43:30;11.40;75.70
19050;DHT22;9657;45.940;12.840;2022-12-24T04:46:03;11.40;75.70
19050;DHT22;9657;45.940;12.840;2022-12-24T04:48:31;11.40;75.70
19050;DHT22;9657;45.940;12.840;2022-12-24T04:51:00;11.40;75.70
19050;DHT22;9657;45.940;12.840;2022-12-24T04:53:28;11.40;75.70
19050;DHT22;9657;45.940;12.840;2022-12-24T04:55:55;11.40;75.70
19050;DHT22;9657;45.940;12.840;2022-12-24T04:58:22;11.40;75.70
19050;DHT22;9657;45.940;12.840;2022-12-24T05:00:50;11.40;75.70
19050;DHT22;9657;45.940;12.840;2022-12-24T05:03:18;11.40;75.70
19050;DHT22;9657;45.940;12.840;2022-12-24T05:05:45;11.40;75.70
19050;DHT22;9657;45.940;12.840;2022-12-24T05:08:12;11.40;75.70
19050;DHT22;9657;45.940;12.840;2022-12-24T05:10:39;11.40;75.70
19050;DHT22;9657;45.940;12.840;2022-12-24T05:13:06;11.40;75.70
19050;DHT22;9657;45.940;12.840;2022-12-24T05:15:33;11.40;75.70
19050;DHT22;9657;45.940;12.840;2022-12-24T05:18:02;11.40;75.70
19050;DHT22;9657;45.940;12.840;2022-12-24T05:20:29;11.40;75.70
19050;DHT22;9657;45.940;12.840;2022-12-24T05:22:56;11.40;75.70
19050;DHT22;9657;45.940;12.840;2022-12-24T05:25:40;11.50;75.70
19050;DHT22;9657;45.940;12.840;2022-12-24T05:28:24;11.40;75.70
19050;DHT22;9657;45.940;12.840;2022-12-24T05:30:51;11.40;75.70
19050;DHT22;9657;45.940;12.840;2022-12-24T05:33:20;11.40;75.70
19050;DHT22;9657;45.940;12.840;2022-12-24T05:35:47;11.40;75.70
19050;DHT22;9657;45.940;12.840;2022-12-24T05:38:14;11.50;75.70
19050;DHT22;9657;45.940;12.840;2022-12-24T05:40:41;11.40;76.50
19050;DHT22;9657;45.940;12.840;2022-12-24T05:43:08;11.50;75.70
19050;DHT22;9657;45.940;12.840;2022-12-24T05:45:35;11.40;75.70
19050;DHT22;9657;45.940;12.840;2022-12-24T05:48:02;11.40;75.70
19050;DHT22;9657;45.940;12.840;2022-12-24T05:50:30;11.40;75.70
19050;DHT22;9657;45.940;12.840;2022-12-24T05:52:57;11.50;75.70
19050;DHT22;9657;45.940;12.840;2022-12-24T05:55:25;11.40;75.70
19050;DHT22;9657;45.940;12.840;2022-12-24T05:57:52;11.40;75.70
19050;DHT22;9657;45.940;12.840;2022-12-24T06:00:19;11.40;75.70
19050;DHT22;9657;45.940;12.840;2022-12-24T06:02:46;11.40;75.70
19050;DHT22;9657;45.940;12.840;2022-12-24T06:05:14;11.40;75.70
19050;DHT22;9657;45.940;12.840;2022-12-24T06:07:42;11.40;75.70
19050;DHT22;9657;45.940;12.840;2022-12-24T06:10:09;11.40;75.70
19050;DHT22;9657;45.940;12.840;2022-12-24T06:12:36;11.40;75.70
19050;DHT22;9657;45.940;12.840;2022-12-24T06:15:04;11.40;75.70
19050;DHT22;9657;45.940;12.840;2022-12-24T06:17:32;11.40;75.70
19050;DHT22;9657;45.940;12.840;2022-12-24T06:19:59;11.40;75.60
19050;DHT22;9657;45.940;12.840;2022-12-24T06:22:26;11.40;75.70
19050;DHT22;9657;45.940;12.840;2022-12-24T06:24:54;11.40;75.60
19050;DHT22;9657;45.940;12.840;2022-12-24T06:27:21;11.40;75.70
19050;DHT22;9657;45.940;12.840;2022-12-24T06:29:48;11.40;75.60
19050;DHT22;9657;45.940;12.840;2022-12-24T06:32:15;11.40;75.60
19050;DHT22;9657;45.940;12.840;2022-12-24T06:34:42;11.50;75.70
19050;DHT22;9657;45.940;12.840;2022-12-24T06:37:09;11.50;75.70
19050;DHT22;9657;45.940;12.840;2022-12-24T06:39:43;11.40;75.60
19050;DHT22;9657;45.940;12.840;2022-12-24T06:42:12;11.40;75.70
19050;DHT22;9657;45.940;12.840;2022-12-24T06:44:39;11.40;75.60
19050;DHT22;9657;45.940;12.840;2022-12-24T06:47:06;11.40;75.70
19050;DHT22;9657;45.940;12.840;2022-12-24T06:49:33;11.40;75.70
19050;DHT22;9657;45.940;12.840;2022-12-24T06:52:00;11.50;75.70
19050;DHT22;9657;45.940;12.840;2022-12-24T06:54:27;11.50;75.70
19050;DHT22;9657;45.940;12.840;2022-12-24T06:56:54;11.40;75.60
19050;DHT22;9657;45.940;12.840;2022-12-24T06:59:22;11.40;75.60
19050;DHT22;9657;45.940;12.840;2022-12-24T07:01:49;11.40;75.60
19050;DHT22;9657;45.940;12.840;2022-12-24T07:04:16;11.50;75.70
19050;DHT22;9657;45.940;12.840;2022-12-24T07:06:43;11.50;75.70
19050;DHT22;9657;45.940;12.840;2022-12-24T07:09:12;11.50;75.80
19050;DHT22;9657;45.940;12.840;2022-12-24T07:11:39;11.40;75.70
19050;DHT22;9657;45.940;12.840;2022-12-24T07:14:06;11.50;75.70
19050;DHT22;9657;45.940;12.840;2022-12-24T07:16:35;11.40;75.70
19050;DHT22;9657;45.940;12.840;2022-12-24T07:19:02;11.50;75.80
19050;DHT22;9657;45.940;12.840;2022-12-24T07:21:29;11.50;75.80
19050;DHT22;9657;45.940;12.840;2022-12-24T07:23:56;11.40;75.90
19050;DHT22;9657;45.940;12.840;2022-12-24T07:26:23;11.40;75.80
19050;DHT22;9657;45.940;12.840;2022-12-24T07:28:50;11.50;75.90
19050;DHT22;9657;45.940;12.840;2022-12-24T07:31:17;11.50;75.90
19050;DHT22;9657;45.940;12.840;2022-12-24T07:33:45;11.40;76.00
19050;DHT22;9657;45.940;12.840;2022-12-24T07:36:17;11.40;76.00
19050;DHT22;9657;45.940;12.840;2022-12-24T07:38:45;11.40;76.10
19050;DHT22;9657;45.940;12.840;2022-12-24T07:41:12;11.40;76.80
19050;DHT22;9657;45.940;12.840;2022-12-24T07:43:39;11.40;76.10
19050;DHT22;9657;45.940;12.840;2022-12-24T07:46:06;11.40;76.10
19050;DHT22;9657;45.940;12.840;2022-12-24T07:48:34;11.50;76.10
19050;DHT22;9657;45.940;12.840;2022-12-24T07:51:02;11.50;76.10
19050;DHT22;9657;45.940;12.840;2022-12-24T07:53:30;11.50;76.10
19050;DHT22;9657;45.940;12.840;2022-12-24T07:55:57;11.50;76.20
19050;DHT22;9657;45.940;12.840;2022-12-24T07:58:25;11.50;76.10
19050;DHT22;9657;45.940;12.840;2022-12-24T08:00:56;11.50;76.10
19050;DHT22;9657;45.940;12.840;2022-12-24T08:03:23;11.50;76.10
19050;DHT22;9657;45.940;12.840;2022-12-24T08:05:50;11.50;76.10
19050;DHT22;9657;45.940;12.840;2022-12-24T08:08:20;11.50;76.10
19050;DHT22;9657;45.940;12.840;2022-12-24T08:10:47;11.50;76.10
19050;DHT22;9657;45.940;12.840;2022-12-24T08:13:14;11.50;76.10
19050;DHT22;9657;45.940;12.840;2022-12-24T08:15:42;11.50;76.00
19050;DHT22;9657;45.940;12.840;2022-12-24T08:18:09;11.50;76.00
19050;DHT22;9657;45.940;12.840;2022-12-24T08:20:37;11.50;76.00
19050;DHT22;9657;45.940;12.840;2022-12-24T08:23:05;11.50;76.10
19050;DHT22;9657;45.940;12.840;2022-12-24T08:25:34;11.50;76.00
19050;DHT22;9657;45.940;12.840;2022-12-24T08:28:01;11.50;76.10
19050;DHT22;9657;45.940;12.840;2022-12-24T08:30:28;11.50;76.10
19050;DHT22;9657;45.940;12.840;2022-12-24T08:32:55;11.50;76.10
19050;DHT22;9657;45.940;12.840;2022-12-24T08:35:22;11.50;76.10
19050;DHT22;9657;45.940;12.840;2022-12-24T08:37:49;11.50;76.00
19050;DHT22;9657;45.940;12.840;2022-12-24T08:40:16;11.50;76.00
19050;DHT22;9657;45.940;12.840;2022-12-24T08:42:45;11.50;76.00
19050;DHT22;9657;45.940;12.840;2022-12-24T08:45:12;11.50;76.10
19050;DHT22;9657;45.940;12.840;2022-12-24T08:47:39;11.50;76.00
19050;DHT22;9657;45.940;12.840;2022-12-24T08:50:07;11.50;76.10
19050;DHT22;9657;45.940;12.840;2022-12-24T08:52:34;11.40;76.00
19050;DHT22;9657;45.940;12.840;2022-12-24T08:55:02;11.50;76.00
19050;DHT22;9657;45.940;12.840;2022-12-24T08:57:29;11.40;76.00
19050;DHT22;9657;45.940;12.840;2022-12-24T08:59:58;11.50;76.10
19050;DHT22;9657;45.940;12.840;2022-12-24T09:02:25;11.50;76.10
19050;DHT22;9657;45.940;12.840;2022-12-24T09:04:51;11.40;76.20
19050;DHT22;9657;45.940;12.840;2022-12-24T09:07:18;11.50;76.30
19050;DHT22;9657;45.940;12.840;2022-12-24T09:09:46;11.50;76.50
19050;DHT22;9657;45.940;12.840;2022-12-24T09:12:13;11.50;76.50
19050;DHT22;9657;45.940;12.840;2022-12-24T09:14:40;11.50;76.50
19050;DHT22;9657;45.940;12.840;2022-12-24T09:17:08;11.50;76.50
19050;DHT22;9657;45.940;12.840;2022-12-24T09:19:35;11.50;76.50
19050;DHT22;9657;45.940;12.840;2022-12-24T09:22:02;11.50;76.50
19050;DHT22;9657;45.940;12.840;2022-12-24T09:24:29;11.50;76.50
19050;DHT22;9657;45.940;12.840;2022-12-24T09:26:56;11.50;76.50
19050;DHT22;9657;45.940;12.840;2022-12-24T09:29:24;11.50;76.50
19050;DHT22;9657;45.940;12.840;2022-12-24T09:31:51;11.50;76.50
19050;DHT22;9657;45.940;12.840;2022-12-24T09:34:21;11.50;76.50
19050;DHT22;9657;45.940;12.840;2022-12-24T09:36:48;11.50;76.50
19050;DHT22;9657;45.940;12.840;2022-12-24T09:39:16;11.50;76.50
19050;DHT22;9657;45.940;12.840;2022-12-24T09:41:50;11.50;76.50
19050;DHT22;9657;45.940;12.840;2022-12-24T09:44:30;11.50;76.50
19050;DHT22;9657;45.940;12.840;2022-12-24T09:47:03;11.50;76.50
19050;DHT22;9657;45.940;12.840;2022-12-24T09:49:38;11.50;76.50
19050;DHT22;9657;45.940;12.840;2022-12-24T09:52:08;11.50;76.50
19050;DHT22;9657;45.940;12.840;2022-12-24T09:54:38;11.50;76.50
19050;DHT22;9657;45.940;12.840;2022-12-24T09:57:13;11.50;76.50
19050;DHT22;9657;45.940;12.840;2022-12-24T09:59:42;11.50;76.50
19050;DHT22;9657;45.940;12.840;2022-12-24T10:02:12;11.50;76.50
19050;DHT22;9657;45.940;12.840;2022-12-24T10:04:41;11.50;76.50
19050;DHT22;9657;45.940;12.840;2022-12-24T10:07:19;11.50;76.50
19050;DHT22;9657;45.940;12.840;2022-12-24T10:09:51;11.50;76.60
19050;DHT22;9657;45.940;12.840;2022-12-24T10:12:25;11.60;76.60
19050;DHT22;9657;45.940;12.840;2022-12-24T10:15:02;11.60;76.60
19050;DHT22;9657;45.940;12.840;2022-12-24T10:17:44;11.60;76.70
19050;DHT22;9657;45.940;12.840;2022-12-24T10:20:41;11.60;76.80
19050;DHT22;9657;45.940;12.840;2022-12-24T10:23:18;11.50;76.80
19050;DHT22;9657;45.940;12.840;2022-12-24T10:25:52;11.60;76.80
19050;DHT22;9657;45.940;12.840;2022-12-24T10:28:23;11.60;76.80
19050;DHT22;9657;45.940;12.840;2022-12-24T10:30:57;11.60;76.80
19050;DHT22;9657;45.940;12.840;2022-12-24T10:33:29;11.50;76.70
19050;DHT22;9657;45.940;12.840;2022-12-24T10:35:59;11.60;76.80
19050;DHT22;9657;45.940;12.840;2022-12-24T10:38:26;11.50;76.70
19050;DHT22;9657;45.940;12.840;2022-12-24T10:40:54;11.60;76.70
19050;DHT22;9657;45.940;12.840;2022-12-24T10:43:23;11.60;76.70
19050;DHT22;9657;45.940;12.840;2022-12-24T10:45:54;11.60;76.60
19050;DHT22;9657;45.940;12.840;2022-12-24T10:48:26;11.60;76.70
19050;DHT22;9657;45.940;12.840;2022-12-24T10:50:59;11.60;76.60
19050;DHT22;9657;45.940;12.840;2022-12-24T10:53:37;11.60;76.60
19050;DHT22;9657;45.940;12.840;2022-12-24T10:56:06;11.60;76.60
19050;DHT22;9657;45.940;12.840;2022-12-24T10:58:34;11.60;76.60
19050;DHT22;9657;45.940;12.840;2022-12-24T11:01:01;11.60;76.50
19050;DHT22;9657;45.940;12.840;2022-12-24T11:03:32;11.60;76.60
19050;DHT22;9657;45.940;12.840;2022-12-24T11:06:11;11.60;76.60
19050;DHT22;9657;45.940;12.840;2022-12-24T11:08:41;11.60;76.50
19050;DHT22;9657;45.940;12.840;2022-12-24T11:11:10;11.60;76.50
19050;DHT22;9657;45.940;12.840;2022-12-24T11:13:39;11.60;76.50
19050;DHT22;9657;45.940;12.840;2022-12-24T11:16:16;11.60;76.50
19050;DHT22;9657;45.940;12.840;2022-12-24T11:18:47;11.60;76.60
19050;DHT22;9657;45.940;12.840;2022-12-24T11:21:21;11.60;76.50
19050;DHT22;9657;45.940;12.840;2022-12-24T11:23:51;11.60;76.50
19050;DHT22;9657;45.940;12.840;2022-12-24T11:26:24;11.60;76.50
19050;DHT22;9657;45.940;12.840;2022-12-24T11:29:14;11.60;76.50
19050;DHT22;9657;45.940;12.840;2022-12-24T11:31:42;11.60;76.60
19050;DHT22;9657;45.940;12.840;2022-12-24T11:34:25;11.60;76.50
19050;DHT22;9657;45.940;12.840;2022-12-24T11:37:05;11.60;76.50
19050;DHT22;9657;45.940;12.840;2022-12-24T11:39:38;11.60;76.50
19050;DHT22;9657;45.940;12.840;2022-12-24T11:42:05;11.60;76.50
19050;DHT22;9657;45.940;12.840;2022-12-24T11:44:32;11.60;76.50
19050;DHT22;9657;45.940;12.840;2022-12-24T11:46:59;11.60;76.50
19050;DHT22;9657;45.940;12.840;2022-12-24T11:49:28;11.60;76.50
19050;DHT22;9657;45.940;12.840;2022-12-24T11:52:19;11.60;77.00
19050;DHT22;9657;45.940;12.840;2022-12-24T11:54:56;11.60;77.20
19050;DHT22;9657;45.940;12.840;2022-12-24T11:57:31;11.60;77.10
19050;DHT22;9657;45.940;12.840;2022-12-24T12:00:00;11.60;77.10
19050;DHT22;9657;45.940;12.840;2022-12-24T12:02:31;11.60;77.20
19050;DHT22;9657;45.940;12.840;2022-12-24T12:05:04;11.60;77.20
19050;DHT22;9657;45.940;12.840;2022-12-24T12:07:36;11.60;77.10
19050;DHT22;9657;45.940;12.840;2022-12-24T12:10:07;11.70;77.20
19050;DHT22;9657;45.940;12.840;2022-12-24T12:12:40;11.70;77.10
19050;DHT22;9657;45.940;12.840;2022-12-24T12:15:12;11.60;77.90
19050;DHT22;9657;45.940;12.840;2022-12-24T12:17:44;11.60;77.00
19050;DHT22;9657;45.940;12.840;2022-12-24T12:20:16;11.70;77.00
19050;DHT22;9657;45.940;12.840;2022-12-24T12:22:52;11.70;77.00
19050;DHT22;9657;45.940;12.840;2022-12-24T12:25:22;11.70;77.00
19050;DHT22;9657;45.940;12.840;2022-12-24T12:27:53;11.70;77.10
19050;DHT22;9657;45.940;12.840;2022-12-24T12:30:22;11.70;77.00
19050;DHT22;9657;45.940;12.840;2022-12-24T12:32:55;11.70;77.00
19050;DHT22;9657;45.940;12.840;2022-12-24T12:35:27;11.70;77.10
19050;DHT22;9657;45.940;12.840;2022-12-24T12:38:00;11.70;77.20
19050;DHT22;9657;45.940;12.840;2022-12-24T12:40:58;11.70;77.20
19050;DHT22;9657;45.940;12.840;2022-12-24T12:43:45;11.70;77.30
19050;DHT22;9657;45.940;12.840;2022-12-24T12:46:20;11.70;77.30
19050;DHT22;9657;45.940;12.840;2022-12-24T12:49:07;11.70;77.20
19050;DHT22;9657;45.940;12.840;2022-12-24T12:51:42;11.70;77.20
19050;DHT22;9657;45.940;12.840;2022-12-24T12:54:34;11.70;77.10
19050;DHT22;9657;45.940;12.840;2022-12-24T12:57:12;11.70;77.10
19050;DHT22;9657;45.940;12.840;2022-12-24T12:59:43;11.70;77.10
19050;DHT22;9657;45.940;12.840;2022-12-24T13:02:30;11.70;77.00
19050;DHT22;9657;45.940;12.840;2022-12-24T13:05:36;11.70;77.00
19050;DHT22;9657;45.940;12.840;2022-12-24T13:08:12;11.70;77.00
19050;DHT22;9657;45.940;12.840;2022-12-24T13:11:11;11.70;76.90
19050;DHT22;9657;45.940;12.840;2022-12-24T13:14:00;11.70;76.90
19050;DHT22;9657;45.940;12.840;2022-12-24T13:16:45;11.70;76.90
19050;DHT22;9657;45.940;12.840;2022-12-24T13:19:31;11.70;76.90
19050;DHT22;9657;45.940;12.840;2022-12-24T13:22:00;11.70;76.80
19050;DHT22;9657;45.940;12.840;2022-12-24T13:24:28;11.70;76.80
19050;DHT22;9657;45.940;12.840;2022-12-24T13:27:01;11.70;76.80
19050;DHT22;9657;45.940;12.840;2022-12-24T13:29:38;11.70;76.80
19050;DHT22;9657;45.940;12.840;2022-12-24T13:32:38;11.70;76.80
19050;DHT22;9657;45.940;12.840;2022-12-24T13:35:27;11.70;76.80
19050;DHT22;9657;45.940;12.840;2022-12-24T13:44:28;11.80;76.80
19050;DHT22;9657;45.940;12.840;2022-12-24T13:47:01;11.70;76.70
19050;DHT22;9657;45.940;12.840;2022-12-24T13:49:32;11.70;76.70
19050;DHT22;9657;45.940;12.840;2022-12-24T13:52:17;11.70;76.70
19050;DHT22;9657;45.940;12.840;2022-12-24T13:54:49;11.70;76.70
19050;DHT22;9657;45.940;12.840;2022-12-24T13:57:30;11.80;76.70
19050;DHT22;9657;45.940;12.840;2022-12-24T14:00:01;11.70;76.60
19050;DHT22;9657;45.940;12.840;2022-12-24T14:02:32;11.70;76.70
19050;DHT22;9657;45.940;12.840;2022-12-24T14:05:05;11.80;76.80
19050;DHT22;9657;45.940;12.840;2022-12-24T14:07:35;11.80;76.70
19050;DHT22;9657;45.940;12.840;2022-12-24T14:10:03;11.80;76.70
19050;DHT22;9657;45.940;12.840;2022-12-24T14:12:47;11.80;76.60
19050;DHT22;9657;45.940;12.840;2022-12-24T14:15:59;11.80;76.70
19050;DHT22;9657;45.940;12.840;2022-12-24T14:18:27;11.80;76.70
19050;DHT22;9657;45.940;12.840;2022-12-24T14:20:56;11.80;76.60
19050;DHT22;9657;45.940;12.840;2022-12-24T14:23:32;11.80;76.60
19050;DHT22;9657;45.940;12.840;2022-12-24T14:26:01;11.80;76.70
19050;DHT22;9657;45.940;12.840;2022-12-24T14:28:33;11.80;76.60
19050;DHT22;9657;45.940;12.840;2022-12-24T14:31:04;11.70;76.60
19050;DHT22;9657;45.940;12.840;2022-12-24T14:33:33;11.80;77.00
19050;DHT22;9657;45.940;12.840;2022-12-24T14:36:01;11.80;76.60
19050;DHT22;9657;45.940;12.840;2022-12-24T14:38:29;11.80;76.60
19050;DHT22;9657;45.940;12.840;2022-12-24T14:41:05;11.80;76.60
19050;DHT22;9657;45.940;12.840;2022-12-24T14:43:47;11.70;76.60
19050;DHT22;9657;45.940;12.840;2022-12-24T14:46:23;11.80;76.70
19050;DHT22;9657;45.940;12.840;2022-12-24T14:48:56;11.80;76.80
19050;DHT22;9657;45.940;12.840;2022-12-24T14:51:30;11.80;76.80
19050;DHT22;9657;45.940;12.840;2022-12-24T14:54:26;11.80;77.60
19050;DHT22;9657;45.940;12.840;2022-12-24T14:57:17;11.80;76.80
19050;DHT22;9657;45.940;12.840;2022-12-24T14:59:47;11.80;76.80
19050;DHT22;9657;45.940;12.840;2022-12-24T15:02:30;11.80;76.70
19050;DHT22;9657;45.940;12.840;2022-12-24T15:05:11;11.80;76.80
19050;DHT22;9657;45.940;12.840;2022-12-24T15:07:42;11.80;76.80
19050;DHT22;9657;45.940;12.840;2022-12-24T15:10:28;11.80;76.80
19050;DHT22;9657;45.940;12.840;2022-12-24T15:12:56;11.80;76.80
19050;DHT22;9657;45.940;12.840;2022-12-24T15:15:24;11.80;76.80
19050;DHT22;9657;45.940;12.840;2022-12-24T15:17:53;11.80;76.80
19050;DHT22;9657;45.940;12.840;2022-12-24T15:20:23;11.80;76.90
19050;DHT22;9657;45.940;12.840;2022-12-24T15:22:52;11.80;76.80
19050;DHT22;9657;45.940;12.840;2022-12-24T15:25:22;11.80;76.80
19050;DHT22;9657;45.940;12.840;2022-12-24T15:27:50;11.80;76.80
19050;DHT22;9657;45.940;12.840;2022-12-24T15:30:21;11.80;76.80
19050;DHT22;9657;45.940;12.840;2022-12-24T15:32:49;11.80;76.90
19050;DHT22;9657;45.940;12.840;2022-12-24T15:35:33;11.80;76.80
19050;DHT22;9657;45.940;12.840;2022-12-24T15:38:05;11.80;76.80
19050;DHT22;9657;45.940;12.840;2022-12-24T15:40:36;11.80;76.70
19050;DHT22;9657;45.940;12.840;2022-12-24T15:43:05;11.80;76.80
19050;DHT22;9657;45.940;12.840;2022-12-24T15:45:39;11.80;76.90
19050;DHT22;9657;45.940;12.840;2022-12-24T15:48:09;11.80;76.80
19050;DHT22;9657;45.940;12.840;2022-12-24T15:50:43;11.80;76.90
19050;DHT22;9657;45.940;12.840;2022-12-24T15:53:13;11.80;77.00
19050;DHT22;9657;45.940;12.840;2022-12-24T15:55:44;11.80;77.00
19050;DHT22;9657;45.940;12.840;2022-12-24T15:58:16;11.80;76.90
19050;DHT22;9657;45.940;12.840;2022-12-24T16:00:59;11.80;77.00
19050;DHT22;9657;45.940;12.840;2022-12-24T16:03:26;11.80;77.00